Time;durP1;ratioP1;P1;durP2;ratioP2;P2;SDS_P1;SDS_P2;PMS_P1;PMS_P2;Temp;Humidity;BMP_temperature;BMP_pressure;BME280_temperature;BME280_humidity;BME280_pressure;Samples;Min_cycle;Max_cycle;Signal;HPM_P1;HPM_P2
2022/02/20 00:01:27;;;;;;;;;;;;;;;;;;5079496;28;19920;-77
2022/02/20 00:03:52;;;;;;;;;;;;;;;;;;5072911;28;20417;-77
2022/02/20 00:06:18;;;;;;;;;;;;;;;;;;5080879;28;19928;-77
2022/02/20 00:08:44;;;;;;;;;;;;;;;;;;5073342;28;19921;-77
2022/02/20 00:11:09;;;;;;;;;;;;;;;;;;5061916;28;19928;-79
2022/02/20 00:13:35;;;;;;;;;;;;;;;;;;5095492;28;19921;-77
2022/02/20 00:16:00;;;;;;;;;;;;;;;;;;5074432;28;19920;-74
2022/02/20 00:18:26;;;;;;;;;;;;;;;;;;5062966;28;19925;-74
2022/02/20 00:20:51;;;;;;;;;;;;;;;;;;5075398;28;20271;-74
2022/02/20 00:23:16;;;;;;;;;;;;;;;;;;5079418;28;19929;-74
2022/02/20 00:25:42;;;;;;;;;;;;;;;;;;5076269;28;20315;-74
2022/02/20 00:28:08;;;;;;;;;;;;;;;;;;5076063;28;19974;-75
2022/02/20 00:30:33;;;;;;;;;;;;;;;;;;5102821;28;19990;-74
2022/02/20 00:33:00;;;;;;;;;;;;;;;;;;5079575;28;20435;-77
2022/02/20 00:35:27;;;;;;;;;;;;;;;;;;5103770;28;19923;-76
2022/02/20 00:37:53;;;;;;;;;;;;;;;;;;5084896;28;19947;-76
2022/02/20 00:40:18;;;;;;;;;;;;;;;;;;5058601;28;20329;-76
2022/02/20 00:42:43;;;;;;;;;;;;;;;;;;5080386;28;20329;-76
2022/02/20 00:45:08;;;;;;;;;;;;;;;;;;5079568;28;20034;-76
2022/02/20 00:47:34;;;;;;;;;;;;;;;;;;5077798;28;19931;-76
2022/02/20 00:49:59;;;;;;;;;;;;;;;;;;5074174;28;20317;-78
2022/02/20 00:52:24;;;;;;;;;;;;;;;;;;5076408;28;19920;-78
2022/02/20 00:54:50;;;;;;;;;;;;;;;;;;5074703;28;19920;-76
2022/02/20 00:57:15;;;;;;;;;;;;;;;;;;5077560;28;19951;-76
2022/02/20 00:59:40;;;;;;;;;;;;;;;;;;5074570;28;19921;-78
2022/02/20 01:02:05;;;;;;;;;;;;;;;;;;5075889;28;19921;-78
2022/02/20 01:04:31;;;;;;;;;;;;;;;;;;5073680;28;19916;-78
2022/02/20 01:06:56;;;;;;;;;;;;;;;;;;5075872;28;20287;-78
2022/02/20 01:09:21;;;;;;;;;;;;;;;;;;5072031;28;20368;-78
2022/02/20 01:11:47;;;;;;;;;;;;;;;;;;5081333;28;20389;-76
2022/02/20 01:14:12;;;;;;;;;;;;;;;;;;5073764;28;20007;-76
2022/02/20 01:16:37;;;;;;;;;;;;;;;;;;5075042;28;20014;-74
2022/02/20 01:19:03;;;;;;;;;;;;;;;;;;5080632;28;19916;-75
2022/02/20 01:21:28;;;;;;;;;;;;;;;;;;5080128;28;20033;-77
2022/02/20 01:23:53;;;;;;;;;;;;;;;;;;5077812;28;19951;-75
2022/02/20 01:26:18;;;;;;;;;;;;;;;;;;5078609;28;19924;-75
2022/02/20 01:28:44;;;;;;;;;;;;;;;;;;5074072;28;19924;-78
2022/02/20 01:31:09;;;;;;;;;;;;;;;;;;5074047;28;19921;-78
2022/02/20 01:33:34;;;;;;;;;;;;;;;;;;5074312;28;20025;-77
2022/02/20 01:36:00;;;;;;;;;;;;;;;;;;5069326;28;19927;-78
2022/02/20 01:38:25;;;;;;;;;;;;;;;;;;5081117;28;19920;-77
2022/02/20 01:40:50;;;;;;;;;;;;;;;;;;5074110;28;20314;-77
2022/02/20 01:43:16;;;;;;;;;;;;;;;;;;5075191;28;20019;-75
2022/02/20 01:45:42;;;;;;;;;;;;;;;;;;5071568;28;20287;-75
2022/02/20 01:48:07;;;;;;;;;;;;;;;;;;5088257;28;19916;-75
2022/02/20 01:50:32;;;;;;;;;;;;;;;;;;5073104;28;19924;-75
2022/02/20 01:52:58;;;;;;;;;;;;;;;;;;5075203;28;20369;-75
2022/02/20 01:55:23;;;;;;;;;;;;;;;;;;5070676;28;19946;-74
2022/02/20 01:57:49;;;;;;;;;;;;;;;;;;5068490;28;19923;-74
2022/02/20 02:00:15;;;;;;;;;;;;;;;;;;5072680;28;20003;-78
2022/02/20 02:02:41;;;;;;;;;;;;;;;;;;5077588;28;20236;-78
2022/02/20 02:05:06;;;;;;;;;;;;;;;;;;5071288;28;19966;-77
2022/02/20 02:07:32;;;;;;;;;;;;;;;;;;5079984;28;20386;-77
2022/02/20 02:09:57;;;;;;;;;;;;;;;;;;5004888;28;1919130;-78
2022/02/20 02:12:22;;;;;;;;;;;;;;;;;;5076901;28;19939;-77
2022/02/20 02:15:07;;;;;;;;;;;;;;;;;;5055651;28;20086;-75
2022/02/20 02:17:32;;;;;;;;;;;;;;;;;;5076460;28;19921;-75
2022/02/20 02:19:58;;;;;;;;;;;;;;;;;;5061786;28;19942;-74
2022/02/20 02:22:24;;;;;;;;;;;;;;;;;;5073775;28;20026;-75
2022/02/20 02:24:49;;;;;;;;;;;;;;;;;;5079326;28;20438;-74
2022/02/20 02:27:15;;;;;;;;;;;;;;;;;;5056013;28;20011;-74
2022/02/20 02:29:40;;;;;;;;;;;;;;;;;;5097993;28;19924;-75
2022/02/20 02:32:06;;;;;;;;;;;;;;;;;;5065693;28;19917;-75
2022/02/20 02:34:31;;;;;;;;;;;;;;;;;;5092436;28;19920;-75
2022/02/20 02:36:57;;;;;;;;;;;;;;;;;;5061007;28;19919;-74
2022/02/20 02:39:22;;;;;;;;;;;;;;;;;;5072955;28;19921;-75
2022/02/20 02:41:47;;;;;;;;;;;;;;;;;;5066126;28;19927;-75
2022/02/20 02:44:13;;;;;;;;;;;;;;;;;;5072807;28;19947;-75
2022/02/20 02:46:38;;;;;;;;;;;;;;;;;;5057835;28;19921;-74
2022/02/20 02:49:04;;;;;;;;;;;;;;;;;;5072479;28;19920;-74
2022/02/20 02:51:29;;;;;;;;;;;;;;;;;;5072384;28;20376;-75
2022/02/20 02:53:55;;;;;;;;;;;;;;;;;;5072761;28;20026;-75
2022/02/20 02:56:21;;;;;;;;;;;;;;;;;;5072668;28;19966;-74
2022/02/20 02:58:46;;;;;;;;;;;;;;;;;;5088220;28;19921;-75
2022/02/20 03:01:11;;;;;;;;;;;;;;;;;;5075701;28;19920;-75
2022/02/20 03:03:37;;;;;;;;;;;;;;;;;;5080611;28;19920;-75
2022/02/20 03:06:11;;;;;;;;;;;;;;;;;;5076418;28;19920;-75
2022/02/20 03:08:37;;;;;;;;;;;;;;;;;;5059240;28;20273;-74
2022/02/20 03:11:03;;;;;;;;;;;;;;;;;;5103829;28;19973;-76
2022/02/20 03:13:29;;;;;;;;;;;;;;;;;;5061376;28;20541;-75
2022/02/20 03:15:54;;;;;;;;;;;;;;;;;;5075103;28;19929;-75
2022/02/20 03:18:20;;;;;;;;;;;;;;;;;;5077578;28;19970;-74
2022/02/20 03:20:45;;;;;;;;;;;;;;;;;;5073921;28;19916;-75
2022/02/20 03:23:10;;;;;;;;;;;;;;;;;;5076726;28;20346;-75
2022/02/20 03:25:36;;;;;;;;;;;;;;;;;;5072600;28;19928;-75
2022/02/20 03:28:01;;;;;;;;;;;;;;;;;;5077870;28;19920;-75
2022/02/20 03:30:26;;;;;;;;;;;;;;;;;;5075147;28;19940;-75
2022/02/20 03:32:52;;;;;;;;;;;;;;;;;;5079603;28;19921;-74
2022/02/20 03:35:17;;;;;;;;;;;;;;;;;;5096351;28;19924;-75
2022/02/20 03:37:43;;;;;;;;;;;;;;;;;;5068577;28;19920;-76
2022/02/20 03:40:08;;;;;;;;;;;;;;;;;;5084725;28;19978;-74
2022/02/20 03:42:34;;;;;;;;;;;;;;;;;;5086855;28;19916;-75
2022/02/20 03:44:59;;;;;;;;;;;;;;;;;;5083277;28;19928;-74
2022/02/20 03:47:24;;;;;;;;;;;;;;;;;;5084362;28;19928;-75
2022/02/20 03:49:49;;;;;;;;;;;;;;;;;;5076022;28;19916;-75
2022/02/20 03:52:15;;;;;;;;;;;;;;;;;;5084715;28;20283;-75
2022/02/20 03:54:40;;;;;;;;;;;;;;;;;;5076023;28;19925;-74
2022/02/20 03:57:05;;;;;;;;;;;;;;;;;;5083142;28;20283;-75
2022/02/20 03:59:30;;;;;;;;;;;;;;;;;;5075728;28;20097;-74
2022/02/20 04:01:56;;;;;;;;;;;;;;;;;;5077924;28;19927;-75
2022/02/20 04:04:21;;;;;;;;;;;;;;;;;;5077108;28;19978;-74
2022/02/20 04:06:46;;;;;;;;;;;;;;;;;;5076477;28;19924;-74
2022/02/20 04:09:12;;;;;;;;;;;;;;;;;;5076722;28;19927;-74
2022/02/20 04:11:37;;;;;;;;;;;;;;;;;;5077408;28;19927;-74
2022/02/20 04:14:03;;;;;;;;;;;;;;;;;;5072478;28;19964;-75
2022/02/20 04:16:28;;;;;;;;;;;;;;;;;;5074139;28;20295;-75
2022/02/20 04:18:53;;;;;;;;;;;;;;;;;;5077420;28;19924;-75
2022/02/20 04:21:18;;;;;;;;;;;;;;;;;;5077304;28;19924;-75
2022/02/20 04:23:44;;;;;;;;;;;;;;;;;;5075376;28;19921;-75
2022/02/20 04:26:09;;;;;;;;;;;;;;;;;;5076130;28;19927;-74
2022/02/20 04:28:34;;;;;;;;;;;;;;;;;;5076206;28;20065;-75
2022/02/20 04:31:00;;;;;;;;;;;;;;;;;;5075327;28;20026;-77
2022/02/20 04:33:25;;;;;;;;;;;;;;;;;;5090965;28;20376;-78
2022/02/20 04:35:50;;;;;;;;;;;;;;;;;;5076680;28;19927;-77
2022/02/20 04:38:16;;;;;;;;;;;;;;;;;;5088954;28;19920;-77
2022/02/20 04:40:41;;;;;;;;;;;;;;;;;;5074313;28;20269;-77
2022/02/20 04:43:07;;;;;;;;;;;;;;;;;;5077940;28;19921;-75
2022/02/20 04:45:32;;;;;;;;;;;;;;;;;;5107062;28;19924;-74
2022/02/20 04:47:57;;;;;;;;;;;;;;;;;;5079839;28;19916;-75
2022/02/20 04:50:22;;;;;;;;;;;;;;;;;;5074466;28;19921;-74
2022/02/20 04:52:48;;;;;;;;;;;;;;;;;;5095003;28;19925;-74
2022/02/20 04:55:13;;;;;;;;;;;;;;;;;;5074555;28;19916;-75
2022/02/20 04:57:39;;;;;;;;;;;;;;;;;;5088805;28;20000;-75
2022/02/20 05:00:06;;;;;;;;;;;;;;;;;;5073070;28;20272;-75
2022/02/20 05:02:31;;;;;;;;;;;;;;;;;;5097268;28;20352;-75
2022/02/20 05:04:56;;;;;;;;;;;;;;;;;;5074590;28;19920;-75
2022/02/20 05:07:22;;;;;;;;;;;;;;;;;;5080324;28;19920;-75
2022/02/20 05:09:47;;;;;;;;;;;;;;;;;;5080577;28;20367;-75
2022/02/20 05:12:12;;;;;;;;;;;;;;;;;;5086313;28;20336;-75
2022/02/20 05:14:38;;;;;;;;;;;;;;;;;;5074434;28;19928;-74
2022/02/20 05:17:03;;;;;;;;;;;;;;;;;;5080812;28;19923;-74
2022/02/20 05:19:28;;;;;;;;;;;;;;;;;;5070828;28;20333;-75
2022/02/20 05:21:54;;;;;;;;;;;;;;;;;;5075242;28;19932;-74
2022/02/20 05:24:19;;;;;;;;;;;;;;;;;;5073049;28;19916;-75
2022/02/20 05:26:44;;;;;;;;;;;;;;;;;;5074198;28;19963;-75
2022/02/20 05:29:10;;;;;;;;;;;;;;;;;;5075130;28;19974;-76
2022/02/20 05:31:35;;;;;;;;;;;;;;;;;;5065636;28;19924;-75
2022/02/20 05:34:00;;;;;;;;;;;;;;;;;;5076714;28;20000;-75
2022/02/20 05:36:26;;;;;;;;;;;;;;;;;;5074884;28;19920;-74
2022/02/20 05:38:51;;;;;;;;;;;;;;;;;;5085777;28;19920;-74
2022/02/20 05:41:17;;;;;;;;;;;;;;;;;;5080424;28;19920;-74
2022/02/20 05:43:42;;;;;;;;;;;;;;;;;;5077805;28;19928;-75
2022/02/20 05:46:07;;;;;;;;;;;;;;;;;;5075958;28;20291;-75
2022/02/20 05:48:32;;;;;;;;;;;;;;;;;;5081254;28;19963;-74
2022/02/20 05:50:58;;;;;;;;;;;;;;;;;;5079250;28;19920;-75
2022/02/20 05:53:23;;;;;;;;;;;;;;;;;;5074770;28;19916;-75
2022/02/20 05:55:48;;;;;;;;;;;;;;;;;;5074257;28;19924;-74
2022/02/20 05:58:14;;;;;;;;;;;;;;;;;;5073378;28;19923;-75
2022/02/20 06:00:39;;;;;;;;;;;;;;;;;;5100814;28;19927;-75
2022/02/20 06:03:04;;;;;;;;;;;;;;;;;;5074747;28;19923;-74
2022/02/20 06:05:29;;;;;;;;;;;;;;;;;;5074539;28;20283;-74
2022/02/20 06:07:55;;;;;;;;;;;;;;;;;;5074307;28;19920;-75
2022/02/20 06:10:20;;;;;;;;;;;;;;;;;;5106999;28;19981;-74
2022/02/20 06:12:45;;;;;;;;;;;;;;;;;;5075192;28;19971;-75
2022/02/20 06:15:12;;;;;;;;;;;;;;;;;;5073962;28;20356;-75
2022/02/20 06:17:37;;;;;;;;;;;;;;;;;;5070677;28;19951;-74
2022/02/20 06:20:02;;;;;;;;;;;;;;;;;;5073302;28;20379;-76
2022/02/20 06:22:28;;;;;;;;;;;;;;;;;;5078878;28;19920;-75
2022/02/20 06:24:53;;;;;;;;;;;;;;;;;;5073177;28;19927;-75
2022/02/20 06:27:18;;;;;;;;;;;;;;;;;;5082351;28;19931;-74
2022/02/20 06:29:43;;;;;;;;;;;;;;;;;;5078008;28;19921;-75
2022/02/20 06:32:09;;;;;;;;;;;;;;;;;;5074250;28;19981;-77
2022/02/20 06:34:34;;;;;;;;;;;;;;;;;;5073249;28;20011;-77
2022/02/20 06:36:59;;;;;;;;;;;;;;;;;;5071683;28;19916;-76
2022/02/20 06:39:25;;;;;;;;;;;;;;;;;;5090436;28;19917;-78
2022/02/20 06:41:50;;;;;;;;;;;;;;;;;;5083562;28;20001;-77
2022/02/20 06:44:15;;;;;;;;;;;;;;;;;;5074106;28;20003;-77
2022/02/20 06:46:42;;;;;;;;;;;;;;;;;;5069207;28;19920;-74
2022/02/20 06:49:07;;;;;;;;;;;;;;;;;;5074501;28;19921;-74
2022/02/20 06:51:33;;;;;;;;;;;;;;;;;;5074602;28;19921;-74
2022/02/20 06:53:58;;;;;;;;;;;;;;;;;;5074012;28;19920;-74
2022/02/20 06:56:23;;;;;;;;;;;;;;;;;;5075019;28;19927;-74
2022/02/20 06:58:48;;;;;;;;;;;;;;;;;;5075665;28;19942;-73
2022/02/20 07:01:14;;;;;;;;;;;;;;;;;;5075029;28;19921;-78
2022/02/20 07:03:39;;;;;;;;;;;;;;;;;;5094358;28;20290;-77
2022/02/20 07:06:04;;;;;;;;;;;;;;;;;;5076514;28;19927;-77
2022/02/20 07:08:30;;;;;;;;;;;;;;;;;;5077418;28;19928;-77
2022/02/20 07:10:56;;;;;;;;;;;;;;;;;;5078231;28;20417;-78
2022/02/20 07:13:21;;;;;;;;;;;;;;;;;;5086921;28;19967;-75
2022/02/20 07:15:48;;;;;;;;;;;;;;;;;;5076736;28;20280;-74
2022/02/20 07:18:13;;;;;;;;;;;;;;;;;;5079361;28;19921;-75
2022/02/20 07:20:38;;;;;;;;;;;;;;;;;;5098061;28;19978;-74
2022/02/20 07:23:03;;;;;;;;;;;;;;;;;;5077661;28;20431;-74
2022/02/20 07:25:29;;;;;;;;;;;;;;;;;;5081364;28;19920;-74
2022/02/20 07:27:54;;;;;;;;;;;;;;;;;;5084429;28;20019;-74
2022/02/20 07:30:20;;;;;;;;;;;;;;;;;;5077507;28;19920;-74
2022/02/20 07:32:46;;;;;;;;;;;;;;;;;;5084251;28;20022;-73
2022/02/20 07:35:11;;;;;;;;;;;;;;;;;;5110643;28;19924;-74
2022/02/20 07:37:36;;;;;;;;;;;;;;;;;;5072895;28;19924;-74
2022/02/20 07:40:02;;;;;;;;;;;;;;;;;;5063472;28;19974;-74
2022/02/20 07:42:27;;;;;;;;;;;;;;;;;;5084486;28;19920;-74
2022/02/20 07:44:53;;;;;;;;;;;;;;;;;;5085731;28;19920;-74
2022/02/20 07:47:18;;;;;;;;;;;;;;;;;;5079391;28;19924;-75
2022/02/20 07:49:43;;;;;;;;;;;;;;;;;;5075876;28;19916;-75
2022/02/20 07:52:08;;;;;;;;;;;;;;;;;;5076208;28;19920;-74
2022/02/20 07:54:34;;;;;;;;;;;;;;;;;;5108598;28;19924;-75
2022/02/20 07:56:59;;;;;;;;;;;;;;;;;;5075739;28;20063;-75
2022/02/20 07:59:25;;;;;;;;;;;;;;;;;;5073984;28;19920;-74
2022/02/20 08:01:51;;;;;;;;;;;;;;;;;;5073954;28;19927;-77
2022/02/20 08:04:16;;;;;;;;;;;;;;;;;;5077892;28;19917;-77
2022/02/20 08:06:41;;;;;;;;;;;;;;;;;;5076088;28;19967;-77
2022/02/20 08:09:07;;;;;;;;;;;;;;;;;;5074239;28;20376;-78
2022/02/20 08:11:32;;;;;;;;;;;;;;;;;;5085706;28;20273;-77
2022/02/20 08:13:58;;;;;;;;;;;;;;;;;;5093819;28;19928;-75
2022/02/20 08:16:24;;;;;;;;;;;;;;;;;;5070630;28;19927;-74
2022/02/20 08:18:49;;;;;;;;;;;;;;;;;;5077602;28;19925;-74
2022/02/20 08:21:15;;;;;;;;;;;;;;;;;;5076717;28;19920;-75
2022/02/20 08:23:40;;;;;;;;;;;;;;;;;;5073697;28;20007;-74
2022/02/20 08:26:05;;;;;;;;;;;;;;;;;;5075199;28;19951;-74
2022/02/20 08:28:30;;;;;;;;;;;;;;;;;;5062624;28;19988;-74
2022/02/20 08:30:56;;;;;;;;;;;;;;;;;;5078414;28;20428;-74
2022/02/20 08:33:21;;;;;;;;;;;;;;;;;;5078516;28;19916;-75
2022/02/20 08:35:46;;;;;;;;;;;;;;;;;;5076312;28;19927;-74
2022/02/20 08:38:11;;;;;;;;;;;;;;;;;;5080125;28;19928;-75
2022/02/20 08:40:39;;;;;;;;;;;;;;;;;;5074849;28;20007;-75
2022/02/20 08:43:04;;;;;;;;;;;;;;;;;;5079250;28;19920;-75
2022/02/20 08:45:30;;;;;;;;;;;;;;;;;;5082585;28;19973;-74
2022/02/20 08:47:55;;;;;;;;;;;;;;;;;;5070342;28;20323;-77
2022/02/20 08:50:20;;;;;;;;;;;;;;;;;;5072479;28;20007;-77
2022/02/20 08:52:46;;;;;;;;;;;;;;;;;;5073430;28;19925;-77
2022/02/20 08:55:11;;;;;;;;;;;;;;;;;;5074809;28;19916;-77
2022/02/20 08:57:36;;;;;;;;;;;;;;;;;;5106249;28;20291;-77
2022/02/20 09:00:03;;;;;;;;;;;;;;;;;;5074581;28;20011;-77
2022/02/20 09:02:28;;;;;;;;;;;;;;;;;;5062053;28;19923;-76
2022/02/20 09:04:53;;;;;;;;;;;;;;;;;;5080520;28;19920;-77
2022/02/20 09:07:19;;;;;;;;;;;;;;;;;;5078323;28;20015;-78
2022/02/20 09:09:44;;;;;;;;;;;;;;;;;;5094816;28;20011;-77
2022/02/20 09:12:09;;;;;;;;;;;;;;;;;;5081096;28;21071;-77
2022/02/20 09:14:35;;;;;;;;;;;;;;;;;;5081983;28;20023;-77
2022/02/20 09:17:01;;;;;;;;;;;;;;;;;;5085927;28;20378;-74
2022/02/20 09:19:27;;;;;;;;;;;;;;;;;;5072959;28;19925;-75
2022/02/20 09:21:52;;;;;;;;;;;;;;;;;;5067833;28;19927;-74
2022/02/20 09:24:17;;;;;;;;;;;;;;;;;;5072478;28;19923;-75
2022/02/20 09:26:43;;;;;;;;;;;;;;;;;;5071570;28;19920;-74
2022/02/20 09:29:08;;;;;;;;;;;;;;;;;;5070576;28;19947;-75
2022/02/20 09:31:33;;;;;;;;;;;;;;;;;;5078020;28;19917;-76
2022/02/20 09:33:59;;;;;;;;;;;;;;;;;;5079301;28;20013;-77
2022/02/20 09:36:27;;;;;;;;;;;;;;;;;;5077885;28;20275;-77
2022/02/20 09:38:52;;;;;;;;;;;;;;;;;;5076217;28;20028;-77
2022/02/20 09:41:17;;;;;;;;;;;;;;;;;;5077920;28;19955;-78
2022/02/20 09:43:42;;;;;;;;;;;;;;;;;;5072583;28;20061;-76
2022/02/20 09:46:08;;;;;;;;;;;;;;;;;;5073664;28;19913;-75
2022/02/20 09:48:33;;;;;;;;;;;;;;;;;;5073268;28;19924;-75
2022/02/20 09:51:01;;;;;;;;;;;;;;;;;;5073305;28;19939;-75
2022/02/20 09:53:28;;;;;;;;;;;;;;;;;;5073620;28;20364;-74
2022/02/20 09:55:53;;;;;;;;;;;;;;;;;;5072418;28;19921;-74
2022/02/20 09:58:18;;;;;;;;;;;;;;;;;;5069458;28;19982;-75
2022/02/20 10:00:54;;;;;;;;;;;;;;;;;;5078627;28;19923;-76
2022/02/20 10:03:26;;;;;;;;;;;;;;;;;;5087759;28;20012;-74
2022/02/20 10:05:52;;;;;;;;;;;;;;;;;;5067741;28;19943;-75
2022/02/20 10:08:18;;;;;;;;;;;;;;;;;;5105253;28;19967;-74
2022/02/20 10:10:43;;;;;;;;;;;;;;;;;;5106094;28;20304;-76
2022/02/20 10:13:08;;;;;;;;;;;;;;;;;;5072125;28;20015;-75
2022/02/20 10:15:40;;;;;;;;;;;;;;;;;;5072938;28;19920;-75
2022/02/20 10:18:12;;;;;;;;;;;;;;;;;;5072949;28;19920;-74
2022/02/20 10:20:37;;;;;;;;;;;;;;;;;;5061602;28;20465;-75
2022/02/20 10:23:04;;;;;;;;;;;;;;;;;;5088204;28;20114;-75
2022/02/20 10:25:29;;;;;;;;;;;;;;;;;;5076707;28;19923;-75
2022/02/20 10:27:54;;;;;;;;;;;;;;;;;;5071513;28;19924;-74
2022/02/20 10:30:20;;;;;;;;;;;;;;;;;;5059379;28;19921;-78
2022/02/20 10:32:47;;;;;;;;;;;;;;;;;;5069514;28;20004;-77
2022/02/20 10:35:16;;;;;;;;;;;;;;;;;;5062637;28;20248;-77
2022/02/20 10:37:41;;;;;;;;;;;;;;;;;;5076783;28;19920;-77
2022/02/20 10:40:23;;;;;;;;;;;;;;;;;;5073196;28;19940;-78
2022/02/20 10:42:49;;;;;;;;;;;;;;;;;;5060187;28;19921;-74
2022/02/20 10:45:25;;;;;;;;;;;;;;;;;;5075999;28;19922;-75
2022/02/20 10:47:50;;;;;;;;;;;;;;;;;;5092691;28;19920;-75
2022/02/20 10:50:16;;;;;;;;;;;;;;;;;;5064381;28;19916;-75
2022/02/20 10:52:41;;;;;;;;;;;;;;;;;;5082226;28;20325;-75
2022/02/20 10:55:07;;;;;;;;;;;;;;;;;;5056136;28;19920;-76
2022/02/20 10:57:33;;;;;;;;;;;;;;;;;;5074215;28;19921;-75
2022/02/20 10:59:58;;;;;;;;;;;;;;;;;;5089405;28;20398;-78
2022/02/20 11:02:23;;;;;;;;;;;;;;;;;;5076705;28;19921;-78
2022/02/20 11:04:49;;;;;;;;;;;;;;;;;;5074116;28;19921;-78
2022/02/20 11:07:16;;;;;;;;;;;;;;;;;;5065388;28;19924;-78
2022/02/20 11:09:42;;;;;;;;;;;;;;;;;;5062793;28;20003;-78
2022/02/20 11:12:08;;;;;;;;;;;;;;;;;;5080983;28;20352;-78
2022/02/20 11:14:33;;;;;;;;;;;;;;;;;;5066955;28;20011;-78
2022/02/20 11:16:58;;;;;;;;;;;;;;;;;;5067216;28;20400;-79
2022/02/20 11:19:24;;;;;;;;;;;;;;;;;;5079987;28;20011;-78
2022/02/20 11:21:55;;;;;;;;;;;;;;;;;;5076286;28;20025;-78
2022/02/20 11:24:20;;;;;;;;;;;;;;;;;;5077701;28;19972;-78
2022/02/20 11:26:46;;;;;;;;;;;;;;;;;;5061639;28;19920;-77
2022/02/20 11:29:11;;;;;;;;;;;;;;;;;;5084769;28;19920;-78
2022/02/20 11:31:37;;;;;;;;;;;;;;;;;;5087070;28;19921;-77
2022/02/20 11:34:02;;;;;;;;;;;;;;;;;;5060301;28;20291;-77
2022/02/20 11:36:30;;;;;;;;;;;;;;;;;;5077172;28;19921;-78
2022/02/20 11:39:11;;;;;;;;;;;;;;;;;;5091348;28;19923;-79
2022/02/20 11:41:38;;;;;;;;;;;;;;;;;;5069746;28;19920;-74
2022/02/20 11:44:13;;;;;;;;;;;;;;;;;;5077344;28;19922;-74
2022/02/20 11:46:45;;;;;;;;;;;;;;;;;;5079691;28;19956;-76
2022/02/20 11:49:19;;;;;;;;;;;;;;;;;;5058613;28;19967;-74
2022/02/20 11:52:01;;;;;;;;;;;;;;;;;;5081552;28;19952;-74
2022/02/20 11:54:27;;;;;;;;;;;;;;;;;;5078330;28;20325;-74
2022/02/20 11:57:11;;;;;;;;;;;;;;;;;;5080824;28;19968;-79
2022/02/20 11:59:36;;;;;;;;;;;;;;;;;;5074667;28;19917;-78
2022/02/20 12:02:08;;;;;;;;;;;;;;;;;;5085634;28;19928;-77
2022/02/20 12:04:55;;;;;;;;;;;;;;;;;;5058757;28;19924;-79
2022/02/20 12:07:41;;;;;;;;;;;;;;;;;;5065418;28;19924;-78
2022/02/20 12:10:19;;;;;;;;;;;;;;;;;;5067292;28;19928;-78
2022/02/20 12:12:48;;;;;;;;;;;;;;;;;;5066717;28;19928;-79
2022/02/20 12:15:26;;;;;;;;;;;;;;;;;;5045970;28;20037;-78
2022/02/20 12:17:58;;;;;;;;;;;;;;;;;;5049196;28;19976;-77
2022/02/20 12:20:25;;;;;;;;;;;;;;;;;;5066683;28;19935;-80
2022/02/20 12:22:51;;;;;;;;;;;;;;;;;;5049671;28;19938;-78
2022/02/20 12:25:18;;;;;;;;;;;;;;;;;;5044926;28;20282;-75
2022/02/20 12:27:44;;;;;;;;;;;;;;;;;;5049827;28;19951;-77
2022/02/20 12:30:13;;;;;;;;;;;;;;;;;;5067405;28;20391;-78
2022/02/20 12:32:42;;;;;;;;;;;;;;;;;;5068062;28;19927;-78
2022/02/20 12:35:18;;;;;;;;;;;;;;;;;;5060576;28;19983;-77
2022/02/20 12:37:53;;;;;;;;;;;;;;;;;;5067474;28;19920;-77
2022/02/20 12:40:24;;;;;;;;;;;;;;;;;;5049504;28;19959;-79
2022/02/20 12:43:02;;;;;;;;;;;;;;;;;;5048526;28;19929;-77
2022/02/20 12:45:34;;;;;;;;;;;;;;;;;;5042379;28;20077;-77
2022/02/20 12:48:00;;;;;;;;;;;;;;;;;;5078437;28;19928;-79
2022/02/20 12:50:26;;;;;;;;;;;;;;;;;;5066348;28;19932;-77
2022/02/20 12:52:52;;;;;;;;;;;;;;;;;;5067679;28;19966;-78
2022/02/20 12:55:19;;;;;;;;;;;;;;;;;;5045833;28;19935;-78
2022/02/20 12:57:45;;;;;;;;;;;;;;;;;;5067417;28;20769;-78
2022/02/20 13:00:12;;;;;;;;;;;;;;;;;;5049448;28;19932;-78
2022/02/20 13:02:38;;;;;;;;;;;;;;;;;;5066196;28;20687;-78
2022/02/20 13:05:08;;;;;;;;;;;;;;;;;;5045530;28;19924;-78
2022/02/20 13:07:53;;;;;;;;;;;;;;;;;;5065863;28;20029;-78
2022/02/20 13:10:20;;;;;;;;;;;;;;;;;;5051654;28;19928;-78
2022/02/20 13:13:00;;;;;;;;;;;;;;;;;;5053885;28;19920;-77
2022/02/20 13:15:26;;;;;;;;;;;;;;;;;;5058821;28;19916;-77
2022/02/20 13:18:02;;;;;;;;;;;;;;;;;;5062738;28;20322;-78
2022/02/20 13:20:29;;;;;;;;;;;;;;;;;;5067573;28;20369;-78
2022/02/20 13:22:55;;;;;;;;;;;;;;;;;;5061848;28;19920;-77
2022/02/20 13:25:20;;;;;;;;;;;;;;;;;;5074170;28;19913;-77
2022/02/20 13:27:46;;;;;;;;;;;;;;;;;;5077601;28;19920;-77
2022/02/20 13:30:12;;;;;;;;;;;;;;;;;;5075517;28;20352;-77
2022/02/20 13:32:37;;;;;;;;;;;;;;;;;;5062224;28;19928;-77
2022/02/20 13:35:04;;;;;;;;;;;;;;;;;;5079189;28;19967;-77
2022/02/20 13:37:29;;;;;;;;;;;;;;;;;;5076569;28;19920;-77
2022/02/20 13:39:55;;;;;;;;;;;;;;;;;;5060328;28;19927;-78
2022/02/20 13:42:20;;;;;;;;;;;;;;;;;;5082410;28;19943;-77
2022/02/20 13:44:45;;;;;;;;;;;;;;;;;;5074882;28;20378;-74
2022/02/20 13:47:11;;;;;;;;;;;;;;;;;;5076012;28;19924;-75
2022/02/20 13:49:46;;;;;;;;;;;;;;;;;;5081520;28;20394;-78
2022/02/20 13:52:11;;;;;;;;;;;;;;;;;;5062576;28;19928;-76
2022/02/20 13:54:37;;;;;;;;;;;;;;;;;;5073137;28;20324;-73
2022/02/20 13:57:02;;;;;;;;;;;;;;;;;;5082791;28;19931;-74
2022/02/20 13:59:37;;;;;;;;;;;;;;;;;;5083685;28;20333;-73
2022/02/20 14:02:04;;;;;;;;;;;;;;;;;;5075976;28;20300;-77
2022/02/20 14:04:30;;;;;;;;;;;;;;;;;;5064466;28;19927;-76
2022/02/20 14:06:55;;;;;;;;;;;;;;;;;;5048197;28;19924;-77
2022/02/20 14:09:28;;;;;;;;;;;;;;;;;;5063044;28;19937;-76
2022/02/20 14:12:12;;;;;;;;;;;;;;;;;;5064508;28;20284;-77
2022/02/20 14:14:38;;;;;;;;;;;;;;;;;;5078543;28;20443;-77
2022/02/20 14:17:03;;;;;;;;;;;;;;;;;;5061964;28;19984;-80
2022/02/20 14:19:28;;;;;;;;;;;;;;;;;;5065281;28;20318;-78
2022/02/20 14:21:55;;;;;;;;;;;;;;;;;;5065795;28;19968;-78
2022/02/20 14:24:20;;;;;;;;;;;;;;;;;;5065192;28;19936;-77
2022/02/20 14:26:45;;;;;;;;;;;;;;;;;;5075767;28;20368;-77
2022/02/20 14:29:11;;;;;;;;;;;;;;;;;;5046248;28;19928;-77
2022/02/20 14:31:37;;;;;;;;;;;;;;;;;;5047163;28;19920;-79
2022/02/20 14:34:03;;;;;;;;;;;;;;;;;;5065618;28;20383;-81
2022/02/20 14:36:31;;;;;;;;;;;;;;;;;;5061401;28;19981;-79
2022/02/20 14:39:07;;;;;;;;;;;;;;;;;;5046819;28;20003;-79
2022/02/20 14:41:32;;;;;;;;;;;;;;;;;;5048288;28;19920;-79
2022/02/20 14:43:58;;;;;;;;;;;;;;;;;;5048674;28;19926;-77
2022/02/20 14:46:27;;;;;;;;;;;;;;;;;;5043625;28;19928;-77
2022/02/20 14:48:56;;;;;;;;;;;;;;;;;;5046893;28;20794;-78
2022/02/20 14:51:22;;;;;;;;;;;;;;;;;;5067608;28;19920;-78
2022/02/20 14:53:48;;;;;;;;;;;;;;;;;;5079508;28;20276;-78
2022/02/20 14:56:13;;;;;;;;;;;;;;;;;;5067599;28;19940;-80
2022/02/20 14:58:38;;;;;;;;;;;;;;;;;;5064760;28;19935;-79
2022/02/20 15:01:04;;;;;;;;;;;;;;;;;;5065172;28;20019;-80
2022/02/20 15:03:31;;;;;;;;;;;;;;;;;;5044504;28;20247;-79
2022/02/20 15:05:56;;;;;;;;;;;;;;;;;;5046121;28;19924;-79
2022/02/20 15:08:21;;;;;;;;;;;;;;;;;;5062640;28;19927;-78
2022/02/20 15:10:46;;;;;;;;;;;;;;;;;;5065981;28;19924;-79
2022/02/20 15:13:12;;;;;;;;;;;;;;;;;;5064601;28;20261;-75
2022/02/20 15:15:37;;;;;;;;;;;;;;;;;;5047333;28;20334;-76
2022/02/20 15:18:03;;;;;;;;;;;;;;;;;;5060324;28;19959;-75
2022/02/20 15:20:29;;;;;;;;;;;;;;;;;;5065211;28;19929;-75
2022/02/20 15:22:54;;;;;;;;;;;;;;;;;;5065324;28;19924;-76
2022/02/20 15:25:21;;;;;;;;;;;;;;;;;;5068663;28;19959;-75
2022/02/20 15:27:46;;;;;;;;;;;;;;;;;;5064392;28;19943;-75
2022/02/20 15:30:15;;;;;;;;;;;;;;;;;;5068015;28;19925;-79
2022/02/20 15:32:42;;;;;;;;;;;;;;;;;;5069161;28;20755;-80
2022/02/20 15:35:08;;;;;;;;;;;;;;;;;;5064483;28;19927;-79
2022/02/20 15:37:33;;;;;;;;;;;;;;;;;;5046029;28;19924;-80
2022/02/20 15:39:58;;;;;;;;;;;;;;;;;;5067158;28;19923;-79
2022/02/20 15:42:24;;;;;;;;;;;;;;;;;;5067720;28;19942;-78
2022/02/20 15:44:49;;;;;;;;;;;;;;;;;;5068189;28;19925;-79
2022/02/20 15:47:14;;;;;;;;;;;;;;;;;;5064132;28;19931;-78
2022/02/20 15:49:40;;;;;;;;;;;;;;;;;;5065339;28;20387;-77
2022/02/20 15:52:05;;;;;;;;;;;;;;;;;;5049862;28;19928;-75
2022/02/20 15:54:30;;;;;;;;;;;;;;;;;;5069242;28;19928;-76
2022/02/20 15:56:56;;;;;;;;;;;;;;;;;;5064718;28;19928;-76
2022/02/20 15:59:22;;;;;;;;;;;;;;;;;;5077883;28;19935;-76
2022/02/20 16:01:51;;;;;;;;;;;;;;;;;;5078563;28;19982;-77
2022/02/20 16:04:16;;;;;;;;;;;;;;;;;;5068269;28;19931;-75
2022/02/20 16:06:42;;;;;;;;;;;;;;;;;;5045329;28;19924;-76
2022/02/20 16:09:07;;;;;;;;;;;;;;;;;;5045948;28;19936;-77
2022/02/20 16:11:33;;;;;;;;;;;;;;;;;;5067460;28;19927;-75
2022/02/20 16:13:59;;;;;;;;;;;;;;;;;;5067340;28;20364;-76
2022/02/20 16:16:24;;;;;;;;;;;;;;;;;;5064357;28;19947;-76
2022/02/20 16:18:50;;;;;;;;;;;;;;;;;;5067498;28;19928;-75
2022/02/20 16:21:17;;;;;;;;;;;;;;;;;;5068722;28;20431;-75
2022/02/20 16:23:44;;;;;;;;;;;;;;;;;;5049870;28;20031;-76
2022/02/20 16:26:09;;;;;;;;;;;;;;;;;;5067399;28;19935;-77
2022/02/20 16:28:35;;;;;;;;;;;;;;;;;;5031410;28;19958;-75
2022/02/20 16:31:03;;;;;;;;;;;;;;;;;;5069161;28;19928;-80
2022/02/20 16:33:32;;;;;;;;;;;;;;;;;;5044861;28;19925;-79
2022/02/20 16:35:57;;;;;;;;;;;;;;;;;;5076786;28;19935;-79
2022/02/20 16:38:24;;;;;;;;;;;;;;;;;;5044395;28;19928;-78
2022/02/20 16:40:49;;;;;;;;;;;;;;;;;;5067329;28;19969;-78